Terminal Aerodrome Forecast
Issued by NWS

Home | Current Version | Previous Version | Text Only | Print | Product List | Glossary On
Versions: 1 2 3 4 5 6 7 8 9 10 11 12 13 14 15 16 17 18 19 20 21 22
000
FTUS43 KGRB 220500
TAFCWA
TAF
KCWA 220536Z 2206/2306 16012KT 3SM BR OVC008
      TEMPO 2206/2210 1SM -FZDZSN BR OVC004
     FM221000 14010KT 3SM BR OVC004
      TEMPO 2210/2214 1SM -FZDZSN BR OVC002
     FM221600 12008KT 5SM BR OVC006
     FM230100 10010G17KT 2SM -SN SCT006 OVC010
     FM230300 09012G19KT 1SM -SN OVC012
      AMD LTD TO CLD VIS AND WIND TIL 221200=

USA.gov is the U.S. government's official web portal to all federal, state and local government web resources and services.